sensor_id;sensor_type;location;lat;lon;timestamp;pressure;altitude;pressure_sealevel;temperature;humidity
75640;BME280;64233;51.486;6.332;2023-12-04T00:02:04;99549.28;;;-1.58;100.00
75640;BME280;64233;51.486;6.332;2023-12-04T00:04:30;99556.16;;;-1.57;100.00
75640;BME280;64233;51.486;6.332;2023-12-04T00:06:55;99567.50;;;-1.56;100.00
75640;BME280;64233;51.486;6.332;2023-12-04T00:09:20;99577.00;;;-1.55;100.00
75640;BME280;64233;51.486;6.332;2023-12-04T00:11:46;99587.97;;;-1.51;100.00
75640;BME280;64233;51.486;6.332;2023-12-04T00:14:11;99599.28;;;-1.51;100.00
75640;BME280;64233;51.486;6.332;2023-12-04T00:16:36;99600.94;;;-1.50;100.00
75640;BME280;64233;51.486;6.332;2023-12-04T00:19:02;99621.97;;;-1.50;100.00
75640;BME280;64233;51.486;6.332;2023-12-04T00:21:27;99645.69;;;-1.50;100.00
75640;BME280;64233;51.486;6.332;2023-12-04T00:23:52;99683.34;;;-1.43;100.00
75640;BME280;64233;51.486;6.332;2023-12-04T00:26:17;99713.31;;;-1.44;100.00
75640;BME280;64233;51.486;6.332;2023-12-04T00:28:43;99751.16;;;-1.45;100.00
75640;BME280;64233;51.486;6.332;2023-12-04T00:31:08;99771.22;;;-1.44;100.00
75640;BME280;64233;51.486;6.332;2023-12-04T00:33:34;99791.28;;;-1.43;100.00
75640;BME280;64233;51.486;6.332;2023-12-04T00:35:59;99806.09;;;-1.42;100.00
75640;BME280;64233;51.486;6.332;2023-12-04T00:38:24;99848.41;;;-1.43;100.00
75640;BME280;64233;51.486;6.332;2023-12-04T00:40:49;99890.13;;;-1.40;100.00
75640;BME280;64233;51.486;6.332;2023-12-04T00:43:15;99926.34;;;-1.42;100.00
75640;BME280;64233;51.486;6.332;2023-12-04T00:45:40;99970.31;;;-1.43;100.00
75640;BME280;64233;51.486;6.332;2023-12-04T00:48:05;99995.19;;;-1.45;100.00
75640;BME280;64233;51.486;6.332;2023-12-04T00:50:31;100033.50;;;-1.43;100.00
75640;BME280;64233;51.486;6.332;2023-12-04T00:52:56;100061.25;;;-1.40;100.00
75640;BME280;64233;51.486;6.332;2023-12-04T00:55:21;100097.56;;;-1.35;100.00
75640;BME280;64233;51.486;6.332;2023-12-04T00:57:46;100103.81;;;-1.36;100.00
75640;BME280;64233;51.486;6.332;2023-12-04T01:00:12;100125.72;;;-1.36;100.00
75640;BME280;64233;51.486;6.332;2023-12-04T01:02:38;100150.03;;;-1.34;100.00
75640;BME280;64233;51.486;6.332;2023-12-04T01:05:03;100177.16;;;-1.33;100.00
75640;BME280;64233;51.486;6.332;2023-12-04T01:07:29;100230.66;;;-1.33;100.00
75640;BME280;64233;51.486;6.332;2023-12-04T01:09:54;100195.06;;;-1.29;100.00
75640;BME280;64233;51.486;6.332;2023-12-04T01:12:19;100231.28;;;-1.31;100.00
75640;BME280;64233;51.486;6.332;2023-12-04T01:14:44;100228.22;;;-1.34;100.00
75640;BME280;64233;51.486;6.332;2023-12-04T01:17:10;100255.34;;;-1.34;100.00
75640;BME280;64233;51.486;6.332;2023-12-04T01:19:35;100264.63;;;-1.38;100.00
75640;BME280;64233;51.486;6.332;2023-12-04T01:22:00;100288.97;;;-1.36;100.00
75640;BME280;64233;51.486;6.332;2023-12-04T01:24:26;100308.41;;;-1.37;100.00
75640;BME280;64233;51.486;6.332;2023-12-04T01:26:51;100318.91;;;-1.37;100.00
75640;BME280;64233;51.486;6.332;2023-12-04T01:29:16;100337.97;;;-1.35;100.00
75640;BME280;64233;51.486;6.332;2023-12-04T01:31:41;100354.44;;;-1.33;100.00
75640;BME280;64233;51.486;6.332;2023-12-04T01:34:07;100375.31;;;-1.31;100.00
75640;BME280;64233;51.486;6.332;2023-12-04T01:36:32;100394.56;;;-1.31;100.00
75640;BME280;64233;51.486;6.332;2023-12-04T01:38:57;100423.50;;;-1.31;100.00
75640;BME280;64233;51.486;6.332;2023-12-04T01:41:22;100438.94;;;-1.28;100.00
75640;BME280;64233;51.486;6.332;2023-12-04T01:43:48;100447.88;;;-1.29;100.00
75640;BME280;64233;51.486;6.332;2023-12-04T01:46:15;100470.28;;;-1.33;100.00
75640;BME280;64233;51.486;6.332;2023-12-04T01:48:42;100486.47;;;-1.36;100.00
75640;BME280;64233;51.486;6.332;2023-12-04T01:51:09;100497.19;;;-1.37;100.00
75640;BME280;64233;51.486;6.332;2023-12-04T01:53:36;100504.06;;;-1.36;100.00
75640;BME280;64233;51.486;6.332;2023-12-04T01:56:04;100516.88;;;-1.33;100.00
75640;BME280;64233;51.486;6.332;2023-12-04T01:58:29;100523.50;;;-1.37;100.00
75640;BME280;64233;51.486;6.332;2023-12-04T02:00:57;100532.66;;;-1.33;100.00
75640;BME280;64233;51.486;6.332;2023-12-04T02:03:23;100538.94;;;-1.34;100.00
75640;BME280;64233;51.486;6.332;2023-12-04T02:05:50;100537.78;;;-1.32;100.00
75640;BME280;64233;51.486;6.332;2023-12-04T02:08:16;100555.38;;;-1.32;100.00
75640;BME280;64233;51.486;6.332;2023-12-04T02:10:42;100560.00;;;-1.34;100.00
75640;BME280;64233;51.486;6.332;2023-12-04T02:13:08;100572.16;;;-1.33;100.00
75640;BME280;64233;51.486;6.332;2023-12-04T02:15:34;100583.72;;;-1.34;100.00
75640;BME280;64233;51.486;6.332;2023-12-04T02:18:02;100585.19;;;-1.32;100.00
75640;BME280;64233;51.486;6.332;2023-12-04T02:20:34;100582.69;;;-1.33;100.00
75640;BME280;64233;51.486;6.332;2023-12-04T02:23:03;100595.53;;;-1.30;100.00
75640;BME280;64233;51.486;6.332;2023-12-04T02:25:29;100592.72;;;-1.29;100.00
75640;BME280;64233;51.486;6.332;2023-12-04T02:27:57;100588.44;;;-1.30;100.00
75640;BME280;64233;51.486;6.332;2023-12-04T02:30:24;100596.53;;;-1.31;100.00
75640;BME280;64233;51.486;6.332;2023-12-04T02:32:50;100591.88;;;-1.29;100.00
75640;BME280;64233;51.486;6.332;2023-12-04T02:35:22;100597.63;;;-1.26;100.00
75640;BME280;64233;51.486;6.332;2023-12-04T02:37:49;100595.81;;;-1.25;100.00
75640;BME280;64233;51.486;6.332;2023-12-04T02:40:15;100604.06;;;-1.28;100.00
75640;BME280;64233;51.486;6.332;2023-12-04T02:42:40;100603.44;;;-1.30;100.00
75640;BME280;64233;51.486;6.332;2023-12-04T02:45:06;100596.78;;;-1.26;100.00
75640;BME280;64233;51.486;6.332;2023-12-04T02:47:31;100594.53;;;-1.29;100.00
75640;BME280;64233;51.486;6.332;2023-12-04T02:49:57;100600.81;;;-1.30;100.00
75640;BME280;64233;51.486;6.332;2023-12-04T02:52:22;100602.72;;;-1.24;100.00
75640;BME280;64233;51.486;6.332;2023-12-04T02:54:48;100597.28;;;-1.23;100.00
75640;BME280;64233;51.486;6.332;2023-12-04T02:57:13;100599.91;;;-1.23;100.00
75640;BME280;64233;51.486;6.332;2023-12-04T02:59:38;100596.00;;;-1.27;100.00
75640;BME280;64233;51.486;6.332;2023-12-04T03:02:04;100601.63;;;-1.30;100.00
75640;BME280;64233;51.486;6.332;2023-12-04T03:04:31;100606.88;;;-1.30;100.00
75640;BME280;64233;51.486;6.332;2023-12-04T03:06:56;100606.53;;;-1.27;100.00
75640;BME280;64233;51.486;6.332;2023-12-04T03:09:21;100603.72;;;-1.25;100.00
75640;BME280;64233;51.486;6.332;2023-12-04T03:11:47;100601.81;;;-1.16;100.00
75640;BME280;64233;51.486;6.332;2023-12-04T03:14:12;100602.19;;;-1.19;100.00
75640;BME280;64233;51.486;6.332;2023-12-04T03:16:37;100605.66;;;-1.19;100.00
75640;BME280;64233;51.486;6.332;2023-12-04T03:19:03;100602.66;;;-1.16;100.00
75640;BME280;64233;51.486;6.332;2023-12-04T03:21:28;100598.56;;;-1.18;100.00
75640;BME280;64233;51.486;6.332;2023-12-04T03:23:54;100607.28;;;-1.18;100.00
75640;BME280;64233;51.486;6.332;2023-12-04T03:26:19;100605.97;;;-1.22;100.00
75640;BME280;64233;51.486;6.332;2023-12-04T03:28:44;100599.91;;;-1.23;100.00
75640;BME280;64233;51.486;6.332;2023-12-04T03:31:09;100608.78;;;-1.24;100.00
75640;BME280;64233;51.486;6.332;2023-12-04T03:33:35;100589.72;;;-1.26;100.00
75640;BME280;64233;51.486;6.332;2023-12-04T03:36:00;100600.09;;;-1.24;100.00
75640;BME280;64233;51.486;6.332;2023-12-04T03:38:26;100590.53;;;-1.25;100.00
75640;BME280;64233;51.486;6.332;2023-12-04T03:40:51;100592.53;;;-1.27;100.00
75640;BME280;64233;51.486;6.332;2023-12-04T03:43:16;100604.06;;;-1.28;100.00
75640;BME280;64233;51.486;6.332;2023-12-04T03:45:45;100595.34;;;-1.29;100.00
75640;BME280;64233;51.486;6.332;2023-12-04T03:48:10;100596.00;;;-1.27;100.00
75640;BME280;64233;51.486;6.332;2023-12-04T03:50:35;100593.84;;;-1.23;100.00
75640;BME280;64233;51.486;6.332;2023-12-04T03:53:01;100594.00;;;-1.25;100.00
75640;BME280;64233;51.486;6.332;2023-12-04T03:55:26;100593.66;;;-1.22;100.00
75640;BME280;64233;51.486;6.332;2023-12-04T03:57:52;100593.16;;;-1.25;100.00
75640;BME280;64233;51.486;6.332;2023-12-04T04:00:18;100597.34;;;-1.31;100.00
75640;BME280;64233;51.486;6.332;2023-12-04T04:02:43;100595.53;;;-1.30;100.00
75640;BME280;64233;51.486;6.332;2023-12-04T04:05:09;100597.81;;;-1.27;100.00
75640;BME280;64233;51.486;6.332;2023-12-04T04:07:35;100623.66;;;-1.31;100.00
75640;BME280;64233;51.486;6.332;2023-12-04T04:10:00;100613.31;;;-1.32;100.00
75640;BME280;64233;51.486;6.332;2023-12-04T04:12:27;100621.41;;;-1.34;100.00
75640;BME280;64233;51.486;6.332;2023-12-04T04:14:52;100601.66;;;-1.38;100.00
75640;BME280;64233;51.486;6.332;2023-12-04T04:17:17;100614.84;;;-1.38;100.00
75640;BME280;64233;51.486;6.332;2023-12-04T04:19:43;100601.50;;;-1.36;100.00
75640;BME280;64233;51.486;6.332;2023-12-04T04:22:11;100608.41;;;-1.35;100.00
75640;BME280;64233;51.486;6.332;2023-12-04T04:24:36;100609.88;;;-1.33;100.00
75640;BME280;64233;51.486;6.332;2023-12-04T04:27:01;100605.41;;;-1.32;100.00
75640;BME280;64233;51.486;6.332;2023-12-04T04:29:27;100599.16;;;-1.31;100.00
75640;BME280;64233;51.486;6.332;2023-12-04T04:31:52;100602.78;;;-1.32;100.00
75640;BME280;64233;51.486;6.332;2023-12-04T04:34:20;100604.44;;;-1.31;100.00
75640;BME280;64233;51.486;6.332;2023-12-04T04:36:45;100595.59;;;-1.39;100.00
75640;BME280;64233;51.486;6.332;2023-12-04T04:39:12;100592.31;;;-1.41;100.00
75640;BME280;64233;51.486;6.332;2023-12-04T04:41:38;100594.75;;;-1.39;100.00
75640;BME280;64233;51.486;6.332;2023-12-04T04:44:04;100585.06;;;-1.39;100.00
75640;BME280;64233;51.486;6.332;2023-12-04T04:46:30;100585.50;;;-1.35;100.00
75640;BME280;64233;51.486;6.332;2023-12-04T04:48:55;100590.97;;;-1.36;100.00
75640;BME280;64233;51.486;6.332;2023-12-04T04:51:21;100578.63;;;-1.36;100.00
75640;BME280;64233;51.486;6.332;2023-12-04T04:53:46;100573.38;;;-1.36;100.00
75640;BME280;64233;51.486;6.332;2023-12-04T04:56:11;100577.59;;;-1.35;100.00
75640;BME280;64233;51.486;6.332;2023-12-04T04:58:37;100587.34;;;-1.35;100.00
75640;BME280;64233;51.486;6.332;2023-12-04T05:01:04;100580.72;;;-1.31;100.00
75640;BME280;64233;51.486;6.332;2023-12-04T05:03:29;100584.81;;;-1.29;100.00
75640;BME280;64233;51.486;6.332;2023-12-04T05:05:54;100572.00;;;-1.32;100.00
75640;BME280;64233;51.486;6.332;2023-12-04T05:08:20;100575.28;;;-1.30;100.00
75640;BME280;64233;51.486;6.332;2023-12-04T05:10:45;100556.84;;;-1.30;100.00
75640;BME280;64233;51.486;6.332;2023-12-04T05:13:10;100560.94;;;-1.27;100.00
75640;BME280;64233;51.486;6.332;2023-12-04T05:15:35;100551.88;;;-1.25;100.00
75640;BME280;64233;51.486;6.332;2023-12-04T05:18:01;100563.56;;;-1.27;100.00
75640;BME280;64233;51.486;6.332;2023-12-04T05:20:26;100552.03;;;-1.26;100.00
75640;BME280;64233;51.486;6.332;2023-12-04T05:22:51;100566.75;;;-1.32;100.00
75640;BME280;64233;51.486;6.332;2023-12-04T05:25:17;100572.81;;;-1.31;100.00
75640;BME280;64233;51.486;6.332;2023-12-04T05:27:42;100581.72;;;-1.32;100.00
75640;BME280;64233;51.486;6.332;2023-12-04T05:30:08;100569.53;;;-1.33;100.00
75640;BME280;64233;51.486;6.332;2023-12-04T05:32:33;100571.19;;;-1.32;100.00
75640;BME280;64233;51.486;6.332;2023-12-04T05:34:58;100568.66;;;-1.26;100.00
75640;BME280;64233;51.486;6.332;2023-12-04T05:37:24;100573.94;;;-1.26;100.00
75640;BME280;64233;51.486;6.332;2023-12-04T05:39:49;100567.66;;;-1.25;100.00
75640;BME280;64233;51.486;6.332;2023-12-04T05:42:14;100565.03;;;-1.25;100.00
75640;BME280;64233;51.486;6.332;2023-12-04T05:44:40;100566.03;;;-1.26;100.00
75640;BME280;64233;51.486;6.332;2023-12-04T05:47:05;100564.56;;;-1.28;100.00
75640;BME280;64233;51.486;6.332;2023-12-04T05:49:33;100561.13;;;-1.29;100.00
75640;BME280;64233;51.486;6.332;2023-12-04T05:51:58;100548.41;;;-1.25;100.00
75640;BME280;64233;51.486;6.332;2023-12-04T05:54:23;100551.03;;;-1.25;100.00
75640;BME280;64233;51.486;6.332;2023-12-04T05:56:49;100537.06;;;-1.26;100.00
75640;BME280;64233;51.486;6.332;2023-12-04T05:59:14;100527.16;;;-1.24;100.00
75640;BME280;64233;51.486;6.332;2023-12-04T06:01:39;100521.69;;;-1.22;100.00
75640;BME280;64233;51.486;6.332;2023-12-04T06:04:05;100517.72;;;-1.18;100.00
75640;BME280;64233;51.486;6.332;2023-12-04T06:06:30;100520.34;;;-1.18;100.00
75640;BME280;64233;51.486;6.332;2023-12-04T06:08:55;100514.72;;;-1.15;100.00
75640;BME280;64233;51.486;6.332;2023-12-04T06:11:20;100505.81;;;-1.14;100.00
75640;BME280;64233;51.486;6.332;2023-12-04T06:13:46;100498.91;;;-1.15;100.00
75640;BME280;64233;51.486;6.332;2023-12-04T06:16:11;100493.81;;;-1.16;100.00
75640;BME280;64233;51.486;6.332;2023-12-04T06:18:36;100489.19;;;-1.14;100.00
75640;BME280;64233;51.486;6.332;2023-12-04T06:21:02;100490.38;;;-1.17;100.00
75640;BME280;64233;51.486;6.332;2023-12-04T06:23:27;100487.94;;;-1.18;100.00
75640;BME280;64233;51.486;6.332;2023-12-04T06:25:53;100488.38;;;-1.15;100.00
75640;BME280;64233;51.486;6.332;2023-12-04T06:28:18;100474.03;;;-1.12;100.00
75640;BME280;64233;51.486;6.332;2023-12-04T06:30:44;100486.19;;;-1.11;100.00
75640;BME280;64233;51.486;6.332;2023-12-04T06:33:09;100470.28;;;-1.18;100.00
75640;BME280;64233;51.486;6.332;2023-12-04T06:35:35;100474.94;;;-1.20;100.00
75640;BME280;64233;51.486;6.332;2023-12-04T06:38:06;100466.47;;;-1.15;100.00
75640;BME280;64233;51.486;6.332;2023-12-04T06:40:32;100462.84;;;-1.14;100.00
75640;BME280;64233;51.486;6.332;2023-12-04T06:42:58;100462.69;;;-1.13;100.00
75640;BME280;64233;51.486;6.332;2023-12-04T06:45:23;100471.19;;;-1.11;100.00
75640;BME280;64233;51.486;6.332;2023-12-04T06:47:50;100468.56;;;-1.11;100.00
75640;BME280;64233;51.486;6.332;2023-12-04T06:50:15;100460.94;;;-1.06;100.00
75640;BME280;64233;51.486;6.332;2023-12-04T06:52:41;100446.56;;;-0.88;100.00
75640;BME280;64233;51.486;6.332;2023-12-04T06:55:07;100439.66;;;-0.74;100.00
75640;BME280;64233;51.486;6.332;2023-12-04T06:57:33;100430.41;;;-0.85;100.00
75640;BME280;64233;51.486;6.332;2023-12-04T06:59:58;100427.50;;;-0.90;100.00
75640;BME280;64233;51.486;6.332;2023-12-04T07:02:23;100429.25;;;-0.97;100.00
75640;BME280;64233;51.486;6.332;2023-12-04T07:04:49;100406.91;;;-1.01;100.00
75640;BME280;64233;51.486;6.332;2023-12-04T07:07:14;100411.78;;;-0.98;100.00
75640;BME280;64233;51.486;6.332;2023-12-04T07:09:39;100409.72;;;-1.03;100.00
75640;BME280;64233;51.486;6.332;2023-12-04T07:12:05;100415.97;;;-1.04;100.00
75640;BME280;64233;51.486;6.332;2023-12-04T07:14:31;100417.16;;;-1.07;100.00
75640;BME280;64233;51.486;6.332;2023-12-04T07:16:56;100413.91;;;-1.09;100.00
75640;BME280;64233;51.486;6.332;2023-12-04T07:19:22;100412.34;;;-1.03;100.00
75640;BME280;64233;51.486;6.332;2023-12-04T07:21:48;100403.25;;;-1.00;100.00
75640;BME280;64233;51.486;6.332;2023-12-04T07:24:13;100403.31;;;-0.94;100.00
75640;BME280;64233;51.486;6.332;2023-12-04T07:26:38;100398.91;;;-0.93;100.00
75640;BME280;64233;51.486;6.332;2023-12-04T07:29:04;100400.34;;;-0.91;100.00
75640;BME280;64233;51.486;6.332;2023-12-04T07:31:29;100402.34;;;-0.93;100.00
75640;BME280;64233;51.486;6.332;2023-12-04T07:33:55;100402.34;;;-0.93;100.00
75640;BME280;64233;51.486;6.332;2023-12-04T07:36:21;100398.91;;;-0.93;100.00
75640;BME280;64233;51.486;6.332;2023-12-04T07:38:46;100395.88;;;-0.90;100.00
75640;BME280;64233;51.486;6.332;2023-12-04T07:41:12;100396.25;;;-0.93;100.00
75640;BME280;64233;51.486;6.332;2023-12-04T07:43:38;100394.25;;;-0.91;100.00
75640;BME280;64233;51.486;6.332;2023-12-04T07:46:04;100396.06;;;-0.92;100.00
75640;BME280;64233;51.486;6.332;2023-12-04T07:48:30;100403.13;;;-0.92;100.00
75640;BME280;64233;51.486;6.332;2023-12-04T07:50:56;100407.41;;;-0.91;100.00
75640;BME280;64233;51.486;6.332;2023-12-04T07:53:21;100402.53;;;-0.94;100.00
75640;BME280;64233;51.486;6.332;2023-12-04T07:55:48;100397.88;;;-0.92;100.00
75640;BME280;64233;51.486;6.332;2023-12-04T07:58:17;100401.78;;;-0.88;100.00
75640;BME280;64233;51.486;6.332;2023-12-04T08:00:43;100409.88;;;-0.90;100.00
75640;BME280;64233;51.486;6.332;2023-12-04T08:03:09;100405.16;;;-0.94;100.00
75640;BME280;64233;51.486;6.332;2023-12-04T08:05:34;100412.06;;;-0.93;100.00
75640;BME280;64233;51.486;6.332;2023-12-04T08:07:59;100414.16;;;-0.89;100.00
75640;BME280;64233;51.486;6.332;2023-12-04T08:10:25;100415.78;;;-0.88;100.00
75640;BME280;64233;51.486;6.332;2023-12-04T08:12:50;100422.50;;;-0.85;100.00
75640;BME280;64233;51.486;6.332;2023-12-04T08:15:16;100425.16;;;-0.85;100.00
75640;BME280;64233;51.486;6.332;2023-12-04T08:17:41;100428.31;;;-0.90;100.00
75640;BME280;64233;51.486;6.332;2023-12-04T08:20:07;100422.22;;;-0.90;100.00
75640;BME280;64233;51.486;6.332;2023-12-04T08:22:32;100425.50;;;-0.88;100.00
75640;BME280;64233;51.486;6.332;2023-12-04T08:24:58;100420.03;;;-0.87;100.00
75640;BME280;64233;51.486;6.332;2023-12-04T08:27:24;100416.22;;;-0.84;100.00
75640;BME280;64233;51.486;6.332;2023-12-04T08:29:50;100410.56;;;-0.81;100.00
75640;BME280;64233;51.486;6.332;2023-12-04T08:32:15;100405.69;;;-0.84;100.00
75640;BME280;64233;51.486;6.332;2023-12-04T08:34:40;100400.41;;;-0.84;100.00
75640;BME280;64233;51.486;6.332;2023-12-04T08:37:06;100397.41;;;-0.81;100.00
75640;BME280;64233;51.486;6.332;2023-12-04T08:39:31;100391.97;;;-0.79;100.00
75640;BME280;64233;51.486;6.332;2023-12-04T08:41:56;100386.94;;;-0.74;100.00
75640;BME280;64233;51.486;6.332;2023-12-04T08:44:22;100382.31;;;-0.72;100.00
75640;BME280;64233;51.486;6.332;2023-12-04T08:46:48;100377.03;;;-0.72;100.00
75640;BME280;64233;51.486;6.332;2023-12-04T08:49:14;100380.84;;;-0.75;100.00
75640;BME280;64233;51.486;6.332;2023-12-04T08:51:39;100370.56;;;-0.70;100.00
75640;BME280;64233;51.486;6.332;2023-12-04T08:54:04;100362.53;;;-0.61;100.00
75640;BME280;64233;51.486;6.332;2023-12-04T08:56:29;100356.66;;;-0.63;100.00
75640;BME280;64233;51.486;6.332;2023-12-04T08:58:55;100356.75;;;-0.72;100.00
75640;BME280;64233;51.486;6.332;2023-12-04T09:01:20;100356.38;;;-0.68;100.00
75640;BME280;64233;51.486;6.332;2023-12-04T09:03:45;100354.31;;;-0.73;100.00
75640;BME280;64233;51.486;6.332;2023-12-04T09:06:11;100345.66;;;-0.67;100.00
75640;BME280;64233;51.486;6.332;2023-12-04T09:08:36;100343.66;;;-0.65;100.00
75640;BME280;64233;51.486;6.332;2023-12-04T09:11:02;100340.19;;;-0.65;100.00
75640;BME280;64233;51.486;6.332;2023-12-04T09:13:28;100335.56;;;-0.63;100.00
75640;BME280;64233;51.486;6.332;2023-12-04T09:15:55;100333.16;;;-0.58;100.00
75640;BME280;64233;51.486;6.332;2023-12-04T09:18:20;100331.97;;;-0.56;100.00
75640;BME280;64233;51.486;6.332;2023-12-04T09:20:45;100325.50;;;-0.53;100.00
75640;BME280;64233;51.486;6.332;2023-12-04T09:23:11;100320.88;;;-0.51;100.00
75640;BME280;64233;51.486;6.332;2023-12-04T09:25:37;100319.31;;;-0.45;100.00
75640;BME280;64233;51.486;6.332;2023-12-04T09:28:02;100308.75;;;-0.45;100.00
75640;BME280;64233;51.486;6.332;2023-12-04T09:30:28;100318.28;;;-0.44;100.00
75640;BME280;64233;51.486;6.332;2023-12-04T09:32:53;100317.09;;;-0.42;100.00
75640;BME280;64233;51.486;6.332;2023-12-04T09:35:19;100312.47;;;-0.40;100.00
75640;BME280;64233;51.486;6.332;2023-12-04T09:37:44;100308.41;;;-0.36;100.00
75640;BME280;64233;51.486;6.332;2023-12-04T09:40:11;100301.13;;;-0.33;100.00
75640;BME280;64233;51.486;6.332;2023-12-04T09:42:37;100302.78;;;-0.32;100.00
75640;BME280;64233;51.486;6.332;2023-12-04T09:45:04;100312.69;;;-0.35;100.00
75640;BME280;64233;51.486;6.332;2023-12-04T09:47:31;100308.59;;;-0.37;100.00
75640;BME280;64233;51.486;6.332;2023-12-04T09:49:58;100302.53;;;-0.38;100.00
75640;BME280;64233;51.486;6.332;2023-12-04T09:52:23;100307.19;;;-0.40;100.00
75640;BME280;64233;51.486;6.332;2023-12-04T09:54:50;100298.03;;;-0.37;100.00
75640;BME280;64233;51.486;6.332;2023-12-04T09:57:16;100293.22;;;-0.33;100.00
75640;BME280;64233;51.486;6.332;2023-12-04T09:59:44;100287.94;;;-0.33;100.00
75640;BME280;64233;51.486;6.332;2023-12-04T10:02:09;100296.66;;;-0.33;100.00
75640;BME280;64233;51.486;6.332;2023-12-04T10:04:35;100289.94;;;-0.36;100.00
75640;BME280;64233;51.486;6.332;2023-12-04T10:07:01;100289.78;;;-0.34;100.00
75640;BME280;64233;51.486;6.332;2023-12-04T10:09:27;100283.88;;;-0.36;100.00
75640;BME280;64233;51.486;6.332;2023-12-04T10:11:55;100287.94;;;-0.33;100.00
75640;BME280;64233;51.486;6.332;2023-12-04T10:14:21;100285.13;;;-0.32;100.00
75640;BME280;64233;51.486;6.332;2023-12-04T10:16:47;100274.38;;;-0.30;100.00
75640;BME280;64233;51.486;6.332;2023-12-04T10:19:20;100269.09;;;-0.30;100.00
75640;BME280;64233;51.486;6.332;2023-12-04T10:21:47;100269.75;;;-0.28;100.00
75640;BME280;64233;51.486;6.332;2023-12-04T10:24:13;100260.78;;;-0.27;100.00
75640;BME280;64233;51.486;6.332;2023-12-04T10:26:50;100255.72;;;-0.29;100.00
75640;BME280;64233;51.486;6.332;2023-12-04T10:29:16;100251.28;;;-0.28;100.00
75640;BME280;64233;51.486;6.332;2023-12-04T10:31:41;100242.34;;;-0.27;100.00
75640;BME280;64233;51.486;6.332;2023-12-04T10:34:07;100235.25;;;-0.27;100.00
75640;BME280;64233;51.486;6.332;2023-12-04T10:36:35;100238.69;;;-0.26;100.00
75640;BME280;64233;51.486;6.332;2023-12-04T10:39:01;100234.03;;;-0.24;100.00
75640;BME280;64233;51.486;6.332;2023-12-04T10:41:29;100222.47;;;-0.23;100.00
75640;BME280;64233;51.486;6.332;2023-12-04T10:43:56;100220.47;;;-0.21;100.00
75640;BME280;64233;51.486;6.332;2023-12-04T10:46:21;100228.00;;;-0.18;100.00
75640;BME280;64233;51.486;6.332;2023-12-04T10:48:47;100234.28;;;-0.19;100.00
75640;BME280;64233;51.486;6.332;2023-12-04T10:51:13;100231.03;;;-0.14;100.00
75640;BME280;64233;51.486;6.332;2023-12-04T10:53:40;100226.41;;;-0.12;100.00
75640;BME280;64233;51.486;6.332;2023-12-04T10:56:09;100225.22;;;-0.10;100.00
75640;BME280;64233;51.486;6.332;2023-12-04T10:58:36;100220.75;;;-0.09;100.00
75640;BME280;64233;51.486;6.332;2023-12-04T11:01:06;100227.06;;;-0.04;100.00
75640;BME280;64233;51.486;6.332;2023-12-04T11:03:47;100227.50;;;0.00;100.00
75640;BME280;64233;51.486;6.332;2023-12-04T11:06:16;100217.50;;;-0.05;100.00
75640;BME280;64233;51.486;6.332;2023-12-04T11:08:42;100214.91;;;0.02;100.00
75640;BME280;64233;51.486;6.332;2023-12-04T11:11:21;100214.13;;;0.02;100.00
75640;BME280;64233;51.486;6.332;2023-12-04T11:13:50;100200.91;;;0.02;100.00
75640;BME280;64233;51.486;6.332;2023-12-04T11:16:27;100198.47;;;0.00;100.00
75640;BME280;64233;51.486;6.332;2023-12-04T11:18:59;100191.13;;;-0.05;100.00
75640;BME280;64233;51.486;6.332;2023-12-04T11:21:28;100181.59;;;-0.06;100.00
75640;BME280;64233;51.486;6.332;2023-12-04T11:23:54;100180.97;;;-0.08;100.00
75640;BME280;64233;51.486;6.332;2023-12-04T11:26:22;100183.41;;;-0.06;100.00
75640;BME280;64233;51.486;6.332;2023-12-04T11:28:48;100182.16;;;-0.10;100.00
75640;BME280;64233;51.486;6.332;2023-12-04T11:31:14;100187.63;;;-0.12;100.00
75640;BME280;64233;51.486;6.332;2023-12-04T11:33:40;100186.19;;;-0.14;100.00
75640;BME280;64233;51.486;6.332;2023-12-04T11:36:07;100179.53;;;-0.10;100.00
75640;BME280;64233;51.486;6.332;2023-12-04T11:38:33;100183.38;;;-0.13;100.00
75640;BME280;64233;51.486;6.332;2023-12-04T11:40:59;100175.69;;;-0.08;100.00
75640;BME280;64233;51.486;6.332;2023-12-04T11:43:26;100176.28;;;-0.12;100.00
75640;BME280;64233;51.486;6.332;2023-12-04T11:45:52;100174.06;;;-0.09;100.00
75640;BME280;64233;51.486;6.332;2023-12-04T11:48:22;100167.97;;;-0.09;100.00
75640;BME280;64233;51.486;6.332;2023-12-04T11:50:48;100173.69;;;-0.06;100.00
75640;BME280;64233;51.486;6.332;2023-12-04T11:53:13;100171.03;;;-0.06;100.00
75640;BME280;64233;51.486;6.332;2023-12-04T11:55:40;100170.84;;;-0.04;100.00
75640;BME280;64233;51.486;6.332;2023-12-04T11:58:10;100167.38;;;-0.05;100.00
75640;BME280;64233;51.486;6.332;2023-12-04T12:00:36;100155.97;;;-0.12;100.00
75640;BME280;64233;51.486;6.332;2023-12-04T12:03:05;100156.81;;;-0.11;100.00
75640;BME280;64233;51.486;6.332;2023-12-04T12:05:32;100153.34;;;-0.12;100.00
75640;BME280;64233;51.486;6.332;2023-12-04T12:08:03;100153.53;;;-0.13;100.00
75640;BME280;64233;51.486;6.332;2023-12-04T12:10:29;100154.75;;;-0.16;100.00
75640;BME280;64233;51.486;6.332;2023-12-04T12:12:55;100152.72;;;-0.14;100.00
75640;BME280;64233;51.486;6.332;2023-12-04T12:15:20;100143.19;;;-0.15;100.00
75640;BME280;64233;51.486;6.332;2023-12-04T12:17:46;100143.97;;;-0.14;100.00
75640;BME280;64233;51.486;6.332;2023-12-04T12:20:12;100140.34;;;-0.13;100.00
75640;BME280;64233;51.486;6.332;2023-12-04T12:22:38;100141.75;;;-0.18;100.00
75640;BME280;64233;51.486;6.332;2023-12-04T12:25:07;100137.88;;;-0.22;100.00
75640;BME280;64233;51.486;6.332;2023-12-04T12:27:33;100132.78;;;-0.23;100.00
75640;BME280;64233;51.486;6.332;2023-12-04T12:29:59;100132.38;;;-0.20;100.00
75640;BME280;64233;51.486;6.332;2023-12-04T12:32:26;100118.41;;;-0.21;100.00
75640;BME280;64233;51.486;6.332;2023-12-04T12:34:52;100125.50;;;-0.21;100.00